Time;durP1;ratioP1;P1;durP2;ratioP2;P2;SDS_P1;SDS_P2;PMS_P1;PMS_P2;Temp;Humidity;BMP_temperature;BMP_pressure;BME280_temperature;BME280_humidity;BME280_pressure;Samples;Min_cycle;Max_cycle;Signal;HPM_P1;HPM_P2
2021/01/17 00:00:19;;;;;;;18.95;11.43;;;;;;;2.08;64.29;100306.66;5014459;28;20060;-62
2021/01/17 00:02:48;;;;;;;18.33;11.10;;;;;;;2.04;63.99;100309.13;5014403;28;20057;-63
2021/01/17 00:05:17;;;;;;;18.10;10.67;;;;;;;2.00;64.71;100306.06;5027505;28;20056;-62
2021/01/17 00:07:44;;;;;;;17.60;11.60;;;;;;;1.97;64.48;100298.31;5034078;28;20491;-62
2021/01/17 00:10:13;;;;;;;18.17;11.73;;;;;;;1.88;64.69;100296.34;5033714;28;20060;-62
2021/01/17 00:12:40;;;;;;;18.77;12.38;;;;;;;1.88;65.68;100290.84;5033912;28;20485;-62
2021/01/17 00:15:10;;;;;;;18.65;11.93;;;;;;;1.94;65.63;100295.28;5034039;28;20058;-62
2021/01/17 00:17:37;;;;;;;19.75;12.27;;;;;;;1.96;64.76;100291.19;5033870;28;20053;-62
2021/01/17 00:20:07;;;;;;;19.08;12.98;;;;;;;1.97;64.86;100281.84;5033707;28;20065;-62
2021/01/17 00:22:34;;;;;;;19.35;11.85;;;;;;;1.96;65.77;100282.94;5033377;28;20058;-62
2021/01/17 00:25:01;;;;;;;19.67;11.48;;;;;;;1.96;65.40;100277.47;5032844;28;20060;-63
2021/01/17 00:27:28;;;;;;;19.40;12.82;;;;;;;1.88;65.46;100275.19;5033428;28;20080;-62
2021/01/17 00:29:55;;;;;;;20.85;13.20;;;;;;;1.91;65.94;100262.84;5033511;28;20179;-62
2021/01/17 00:32:22;;;;;;;17.75;12.02;;;;;;;1.93;65.85;100267.00;5034218;28;20360;-62
2021/01/17 00:34:49;;;;;;;18.67;12.02;;;;;;;1.97;65.49;100259.88;5033481;28;20061;-62
2021/01/17 00:37:17;;;;;;;19.38;12.02;;;;;;;1.85;65.65;100245.53;5032527;28;20446;-62
2021/01/17 00:39:45;;;;;;;18.00;11.73;;;;;;;1.84;65.25;100243.84;5032892;28;20459;-62
2021/01/17 00:42:13;;;;;;;18.05;12.00;;;;;;;1.88;65.72;100241.41;5033725;28;20056;-62
2021/01/17 00:44:40;;;;;;;17.63;11.57;;;;;;;1.86;65.30;100222.44;5033136;28;20054;-62
2021/01/17 00:47:07;;;;;;;18.45;11.52;;;;;;;1.88;65.11;100234.00;5033309;28;20061;-62
2021/01/17 00:49:34;;;;;;;16.88;11.60;;;;;;;1.92;64.79;100235.13;5032926;28;20053;-62
2021/01/17 00:52:01;;;;;;;18.50;12.23;;;;;;;1.94;65.26;100234.88;5033303;28;20053;-63
2021/01/17 00:54:28;;;;;;;18.63;11.65;;;;;;;1.99;64.88;100227.47;5032768;28;20421;-62
2021/01/17 00:56:56;;;;;;;18.48;12.30;;;;;;;2.00;65.05;100229.16;5033121;28;20058;-63
2021/01/17 00:59:22;;;;;;;20.98;12.30;;;;;;;2.05;64.62;100231.09;5024702;28;20054;-62
2021/01/17 01:01:49;;;;;;;18.08;11.10;;;;;;;2.13;64.26;100227.03;5032941;28;20053;-62
2021/01/17 01:04:17;;;;;;;18.40;11.98;;;;;;;2.16;64.28;100230.09;5032660;28;20049;-62
2021/01/17 01:06:44;;;;;;;19.63;12.43;;;;;;;2.14;63.93;100217.69;5032886;28;20060;-63
2021/01/17 01:09:14;;;;;;;17.27;11.07;;;;;;;2.18;63.88;100218.81;5033127;28;20060;-63
2021/01/17 01:11:41;;;;;;;18.83;11.98;;;;;;;2.09;64.56;100225.91;5033264;28;20394;-63
2021/01/17 01:14:09;;;;;;;18.58;12.48;;;;;;;2.06;64.86;100226.44;5032996;28;20057;-63
2021/01/17 01:16:36;;;;;;;17.15;11.60;;;;;;;2.00;64.76;100228.34;5032967;28;20057;-62
2021/01/17 01:19:04;;;;;;;19.90;12.63;;;;;;;1.99;65.20;100230.22;5032988;28;20052;-62
2021/01/17 01:21:32;;;;;;;20.63;12.15;;;;;;;2.06;65.16;100220.94;5032439;28;20053;-62
2021/01/17 01:24:02;;;;;;;18.55;11.77;;;;;;;2.10;64.86;100239.41;5032096;28;20041;-62
2021/01/17 01:26:36;;;;;;;19.73;13.07;;;;;;;2.11;65.28;100229.22;5032472;28;20504;-62
2021/01/17 01:29:03;;;;;;;18.77;12.35;;;;;;;2.09;64.66;100225.91;5032350;28;20415;-62
2021/01/17 01:31:35;;;;;;;18.55;12.32;;;;;;;2.08;64.83;100222.34;5032238;28;20532;-61
2021/01/17 01:34:02;;;;;;;21.55;13.80;;;;;;;2.14;66.03;100221.28;5032752;28;20407;-62
2021/01/17 01:36:31;;;;;;;21.55;13.00;;;;;;;2.20;65.94;100239.44;5032332;28;20053;-62
2021/01/17 01:38:59;;;;;;;21.27;13.55;;;;;;;2.26;65.92;100223.00;5032019;28;20046;-62
2021/01/17 01:41:30;;;;;;;20.27;13.02;;;;;;;2.31;65.35;100223.88;5032444;28;20060;-62
2021/01/17 01:43:58;;;;;;;19.27;12.60;;;;;;;2.36;64.98;100225.81;5032138;28;20053;-62
2021/01/17 01:46:26;;;;;;;20.63;12.50;;;;;;;2.36;65.20;100220.31;5032528;28;20458;-62
2021/01/17 01:48:54;;;;;;;19.20;12.57;;;;;;;2.35;64.24;100211.25;5035660;28;20064;-62
2021/01/17 01:51:26;;;;;;;20.30;12.52;;;;;;;2.26;64.50;100215.56;5039370;28;20076;-62
2021/01/17 01:53:55;;;;;;;20.02;12.80;;;;;;;2.33;64.78;100215.34;5038312;28;20052;-62
2021/01/17 01:56:23;;;;;;;20.02;13.15;;;;;;;2.34;63.97;100219.75;5038452;28;20553;-62
2021/01/17 01:58:51;;;;;;;20.10;11.93;;;;;;;2.35;64.88;100222.25;5038612;28;20391;-62
2021/01/17 02:01:19;;;;;;;17.52;12.05;;;;;;;2.31;64.12;100217.53;5038896;28;20052;-62
2021/01/17 02:03:47;;;;;;;21.25;13.65;;;;;;;2.24;64.15;100217.75;5036706;28;20050;-62
2021/01/17 02:06:18;;;;;;;20.25;13.40;;;;;;;2.30;65.00;100224.13;5038822;28;20045;-62
2021/01/17 02:09:15;;;;;;;21.33;13.65;;;;;;;2.32;64.14;100217.25;5038689;28;20049;-62
2021/01/17 02:11:51;;;;;;;21.17;13.45;;;;;;;2.27;64.33;100214.50;5039106;28;20473;-62
2021/01/17 02:14:29;;;;;;;18.92;12.48;;;;;;;2.27;64.19;100214.50;5038512;28;20076;-62
2021/01/17 02:16:56;;;;;;;21.13;12.80;;;;;;;2.22;64.02;100214.44;5038581;28;20053;-61
2021/01/17 02:19:30;;;;;;;19.23;12.60;;;;;;;2.11;64.21;100223.72;5038162;28;20064;-62
2021/01/17 02:22:00;;;;;;;20.13;12.45;;;;;;;2.10;64.35;100228.41;5039024;28;20049;-62
2021/01/17 02:24:38;;;;;;;20.02;13.48;;;;;;;2.03;64.97;100225.84;5038228;28;20046;-62
2021/01/17 02:27:05;;;;;;;20.95;13.20;;;;;;;2.08;65.12;100235.22;5038680;28;20053;-62
2021/01/17 02:29:35;;;;;;;19.20;12.38;;;;;;;2.08;64.92;100236.09;5038752;28;20069;-62
2021/01/17 02:32:05;;;;;;;20.50;12.52;;;;;;;1.99;64.80;100232.97;5038485;28;20076;-62
2021/01/17 02:34:34;;;;;;;21.55;13.50;;;;;;;2.01;65.03;100236.28;5038682;28;20053;-62
2021/01/17 02:37:08;;;;;;;20.25;12.93;;;;;;;2.01;65.51;100236.28;5038869;28;20060;-62
2021/01/17 02:39:48;;;;;;;23.20;13.68;;;;;;;2.05;65.90;100230.28;5038295;28;20053;-62
2021/01/17 02:42:16;;;;;;;20.25;13.70;;;;;;;2.05;65.96;100233.03;5038695;28;20057;-62
2021/01/17 02:44:43;;;;;;;23.38;14.07;;;;;;;2.03;66.01;100242.34;5038587;28;20049;-62
2021/01/17 02:47:10;;;;;;;22.98;13.90;;;;;;;2.07;65.90;100237.16;5038406;28;20050;-61
2021/01/17 02:49:37;;;;;;;22.08;14.02;;;;;;;2.10;66.09;100233.03;5037846;28;20057;-62
2021/01/17 02:52:06;;;;;;;24.20;14.95;;;;;;;2.17;65.61;100223.50;5037873;28;20061;-61
2021/01/17 02:54:34;;;;;;;20.33;13.45;;;;;;;2.21;65.35;100226.56;5038589;28;20053;-62
2021/01/17 02:57:05;;;;;;;23.42;14.07;;;;;;;2.18;65.15;100225.16;5038248;28;20053;-62
2021/01/17 02:59:34;;;;;;;23.75;14.30;;;;;;;2.18;65.86;100230.66;5034704;28;20411;-62
2021/01/17 03:02:04;;;;;;;23.58;14.50;;;;;;;2.20;65.55;100228.44;5034972;28;20401;-62
2021/01/17 03:04:38;;;;;;;23.30;13.95;;;;;;;2.27;64.98;100222.75;5035412;28;20052;-62
2021/01/17 03:07:08;;;;;;;24.02;14.30;;;;;;;2.31;64.63;100234.00;5035131;28;20053;-62
2021/01/17 03:09:36;;;;;;;22.30;14.20;;;;;;;2.32;65.01;100230.19;5035196;28;20064;-62
2021/01/17 03:12:06;;;;;;;23.40;14.05;;;;;;;2.32;64.67;100225.50;5035091;28;20056;-62
2021/01/17 03:14:36;;;;;;;21.98;14.25;;;;;;;2.34;65.15;100222.50;5035147;28;20049;-61
2021/01/17 03:17:04;;;;;;;22.65;13.52;;;;;;;2.23;64.87;100221.63;5035058;28;20143;-61
2021/01/17 03:19:31;;;;;;;21.95;14.43;;;;;;;2.28;65.20;100218.88;5034846;28;20053;-62
2021/01/17 03:21:58;;;;;;;23.77;14.52;;;;;;;2.31;65.21;100214.78;5033838;28;20614;-62
2021/01/17 03:24:25;;;;;;;22.90;13.77;;;;;;;2.32;65.10;100224.69;5033566;28;20049;-62
2021/01/17 03:26:52;;;;;;;23.65;13.73;;;;;;;2.23;64.66;100225.19;5035017;28;20397;-62
2021/01/17 03:29:20;;;;;;;21.65;14.35;;;;;;;2.23;65.49;100225.19;5034955;28;20053;-62
2021/01/17 03:31:47;;;;;;;23.70;15.38;;;;;;;2.24;66.09;100217.75;5034913;28;20491;-61
2021/01/17 03:34:14;;;;;;;24.25;15.02;;;;;;;2.29;66.12;100217.81;5034766;28;20049;-62
2021/01/17 03:36:41;;;;;;;22.05;14.02;;;;;;;2.30;65.33;100211.19;5034704;28;20406;-61
2021/01/17 03:39:07;;;;;;;22.38;14.90;;;;;;;2.28;65.22;100213.38;5034547;28;20050;-62
2021/01/17 03:41:34;;;;;;;25.23;15.57;;;;;;;2.27;66.01;100214.50;5035247;28;20049;-61
2021/01/17 03:44:01;;;;;;;22.85;14.70;;;;;;;2.27;66.52;100219.16;5034697;28;20056;-60
2021/01/17 03:46:30;;;;;;;25.95;15.68;;;;;;;2.32;66.04;100220.00;5034470;28;20054;-61
2021/01/17 03:48:57;;;;;;;23.80;15.07;;;;;;;2.34;65.84;100214.25;5034572;28;20057;-61
2021/01/17 03:51:24;;;;;;;24.35;15.38;;;;;;;2.38;65.92;100212.63;5026215;28;20049;-61
2021/01/17 03:53:54;;;;;;;23.05;15.35;;;;;;;2.39;65.60;100217.03;5034250;28;20053;-60
2021/01/17 03:56:21;;;;;;;24.70;15.38;;;;;;;2.39;65.87;100215.13;5033152;28;20053;-62
2021/01/17 03:58:48;;;;;;;24.00;15.20;;;;;;;2.38;65.98;100216.19;5033899;28;20066;-60
2021/01/17 04:01:15;;;;;;;24.52;14.88;;;;;;;2.37;65.15;100206.31;5033804;28;20057;-60
2021/01/17 04:03:42;;;;;;;23.63;15.30;;;;;;;2.38;65.44;100212.63;5034098;28;20485;-60
2021/01/17 04:06:10;;;;;;;24.05;16.00;;;;;;;2.37;65.53;100209.06;5033883;28;20045;-61
2021/01/17 04:08:37;;;;;;;23.90;14.73;;;;;;;2.33;65.57;100198.84;5033717;28;20069;-62
2021/01/17 04:11:04;;;;;;;24.98;15.93;;;;;;;2.35;65.21;100191.16;5033549;28;20049;-61
2021/01/17 04:13:31;;;;;;;24.83;15.77;;;;;;;2.37;65.33;100188.97;5033993;28;20058;-60
2021/01/17 04:15:58;;;;;;;23.70;15.07;;;;;;;2.41;65.40;100199.16;5033447;28;20056;-62
2021/01/17 04:18:24;;;;;;;24.55;14.75;;;;;;;2.46;65.03;100203.88;5033475;28;20076;-62
2021/01/17 04:20:53;;;;;;;24.98;15.20;;;;;;;2.32;64.57;100203.53;5033613;28;20057;-62
2021/01/17 04:23:20;;;;;;;24.23;15.52;;;;;;;2.34;64.90;100206.00;5033192;28;20061;-62
2021/01/17 04:25:47;;;;;;;23.95;14.10;;;;;;;2.39;64.92;100208.78;5033306;28;20049;-61
2021/01/17 04:28:14;;;;;;;23.73;14.40;;;;;;;2.45;65.00;100207.72;5033243;28;20057;-62
2021/01/17 04:30:41;;;;;;;22.52;14.63;;;;;;;2.52;64.12;100207.47;5033486;28;20060;-61
2021/01/17 04:33:07;;;;;;;24.63;15.55;;;;;;;2.54;64.96;100199.78;5034000;28;20053;-61
2021/01/17 04:35:35;;;;;;;22.35;14.15;;;;;;;2.53;65.08;100190.72;5033773;28;20056;-61
2021/01/17 04:38:02;;;;;;;21.65;14.18;;;;;;;2.58;64.40;100195.41;5033790;28;20045;-60
2021/01/17 04:40:30;;;;;;;24.08;14.85;;;;;;;2.66;64.85;100197.63;5033288;28;20053;-61
2021/01/17 04:43:07;;;;;;;27.10;15.63;;;;;;;2.67;64.74;100199.31;5033331;28;20504;-62
2021/01/17 04:45:38;;;;;;;22.80;14.68;;;;;;;2.69;64.07;100196.25;5033235;28;20482;-61
2021/01/17 04:48:05;;;;;;;22.90;14.50;;;;;;;2.71;64.57;100200.44;5033254;28;20053;-60
2021/01/17 04:50:34;;;;;;;22.85;15.02;;;;;;;2.72;63.73;100201.25;5033377;28;20391;-61
2021/01/17 04:53:05;;;;;;;23.45;15.05;;;;;;;2.77;63.71;100187.50;5032582;28;20329;-60
2021/01/17 04:55:35;;;;;;;23.40;14.70;;;;;;;2.80;63.94;100190.53;5033304;28;20054;-61
2021/01/17 04:58:15;;;;;;;21.65;13.55;;;;;;;2.82;62.53;100193.03;5033035;28;20057;-61
2021/01/17 05:00:44;;;;;;;21.33;13.93;;;;;;;2.80;61.85;100185.03;5032780;28;20057;-61
2021/01/17 05:03:24;;;;;;;22.67;14.18;;;;;;;2.80;62.56;100186.97;5033153;28;20061;-61
2021/01/17 05:06:06;;;;;;;23.05;14.02;;;;;;;2.70;62.53;100187.75;5032542;28;20050;-61
2021/01/17 05:08:34;;;;;;;22.70;14.25;;;;;;;2.62;62.83;100197.38;5032649;28;20056;-61
2021/01/17 05:11:06;;;;;;;24.55;13.60;;;;;;;2.55;62.26;100191.28;5032971;28;20072;-61
2021/01/17 05:13:35;;;;;;;22.80;13.95;;;;;;;2.54;62.54;100183.28;5032751;28;20065;-60
2021/01/17 05:16:08;;;;;;;22.20;13.90;;;;;;;2.46;62.65;100186.53;5032545;28;20061;-61
2021/01/17 05:18:36;;;;;;;22.70;13.85;;;;;;;2.47;62.85;100182.72;5033046;28;20046;-61
2021/01/17 05:21:04;;;;;;;23.25;14.23;;;;;;;2.41;62.65;100179.09;5032809;28;20060;-61
2021/01/17 05:23:33;;;;;;;22.13;13.52;;;;;;;2.41;62.78;100179.91;5031673;28;20053;-61
2021/01/17 05:26:03;;;;;;;22.45;13.75;;;;;;;2.43;62.94;100182.41;5032667;28;20053;-61
2021/01/17 05:28:31;;;;;;;22.02;13.30;;;;;;;2.36;63.19;100187.34;5032748;28;20061;-61
2021/01/17 05:30:59;;;;;;;24.33;14.18;;;;;;;2.37;63.05;100189.81;5032655;28;20486;-62
2021/01/17 05:33:29;;;;;;;24.17;13.98;;;;;;;2.38;62.75;100183.22;5032622;28;20057;-61
2021/01/17 05:35:56;;;;;;;;;;;;;;;2.33;63.01;100183.22;5032938;28;20056;-62
2021/01/17 05:38:23;;;;;;;21.33;12.65;;;;;;;2.31;63.64;100181.78;5032318;28;20338;-61
2021/01/17 05:40:50;;;;;;;24.45;14.88;;;;;;;2.32;62.90;100195.28;5032300;28;20065;-61
2021/01/17 05:43:18;;;;;;;24.25;14.95;;;;;;;2.30;63.12;100180.97;5032405;28;20053;-60
2021/01/17 05:45:45;;;;;;;24.50;15.57;;;;;;;2.31;63.08;100188.16;5032394;28;20508;-61
2021/01/17 05:48:12;;;;;;;24.90;15.15;;;;;;;2.22;63.71;100185.03;5032532;28;20053;-62
2021/01/17 05:50:43;;;;;;;27.30;15.88;;;;;;;2.27;63.68;100189.78;5031972;28;20053;-62
2021/01/17 05:53:11;;;;;;;24.65;15.85;;;;;;;2.29;63.50;100206.81;5031886;28;20068;-61
2021/01/17 05:55:39;;;;;;;28.15;15.73;;;;;;;2.30;64.11;100204.88;5032327;28;20065;-61
2021/01/17 05:58:26;;;;;;;24.27;13.85;;;;;;;2.35;63.73;100203.00;5032442;28;20053;-61
2021/01/17 06:00:55;;;;;;;26.83;14.50;;;;;;;2.28;63.70;100209.81;5032362;28;20053;-61
2021/01/17 06:03:25;;;;;;;24.42;15.52;;;;;;;2.28;63.51;100216.13;5032110;28;20056;-61
2021/01/17 06:05:52;;;;;;;;;;;;;;;2.21;64.40;100216.38;5032686;28;20054;-62
2021/01/17 06:08:20;;;;;;;27.10;14.30;;;;;;;2.10;64.79;100228.41;5031804;28;19921;-60
2021/01/17 06:10:48;;;;;;;27.45;16.60;;;;;;;2.15;64.46;100231.16;5032715;28;20057;-59
2021/01/17 06:13:22;;;;;;;26.13;16.40;;;;;;;2.21;64.48;100224.63;5032406;28;20054;-62
2021/01/17 06:15:50;;;;;;;26.60;15.18;;;;;;;2.25;64.65;100230.44;5032124;28;20045;-60
2021/01/17 06:18:19;;;;;;;26.48;14.65;;;;;;;2.20;64.18;100238.63;5032007;28;20064;-60
2021/01/17 06:20:46;;;;;;;26.85;15.55;;;;;;;2.26;64.02;100232.06;5031837;28;20149;-61
2021/01/17 06:23:20;;;;;;;26.65;16.30;;;;;;;2.30;64.71;100233.19;5031903;28;20046;-61
2021/01/17 06:26:01;;;;;;;26.50;15.20;;;;;;;2.25;64.54;100235.91;5032386;28;20049;-61
2021/01/17 06:28:38;;;;;;;27.20;15.88;;;;;;;2.27;64.25;100233.75;5032267;28;20054;-62
2021/01/17 06:31:07;;;;;;;27.23;15.75;;;;;;;2.36;64.22;100237.63;5032201;28;20065;-62
2021/01/17 06:33:40;;;;;;;27.15;15.55;;;;;;;2.40;64.53;100227.75;5032183;28;20053;-62
2021/01/17 06:36:14;;;;;;;26.40;15.55;;;;;;;2.41;64.08;100237.66;5034044;28;20414;-63
2021/01/17 06:38:42;;;;;;;26.02;15.35;;;;;;;2.44;63.48;100228.88;5018181;28;20528;-62
2021/01/17 06:41:09;;;;;;;28.55;16.83;;;;;;;2.47;63.57;100230.25;5035184;28;20049;-61
2021/01/17 06:43:40;;;;;;;27.10;15.75;;;;;;;2.49;63.79;100241.00;5035486;28;20133;-62
2021/01/17 06:46:09;;;;;;;22.67;14.73;;;;;;;2.49;64.04;100247.31;5035445;28;20056;-61
2021/01/17 06:48:36;;;;;;;25.02;14.98;;;;;;;2.49;64.11;100241.81;5035405;28;20057;-62
2021/01/17 06:51:20;;;;;;;26.50;15.48;;;;;;;2.57;63.21;100246.00;5035102;28;20058;-62
2021/01/17 06:53:54;;;;;;;27.02;16.42;;;;;;;2.55;64.30;100250.94;5035638;28;20386;-62
2021/01/17 06:56:21;;;;;;;26.58;16.08;;;;;;;2.58;64.03;100258.63;5034351;28;20396;-62
2021/01/17 06:58:51;;;;;;;25.58;14.93;;;;;;;2.64;65.03;100255.63;5034249;28;20068;-62
2021/01/17 07:01:27;;;;;;;27.33;15.77;;;;;;;2.64;64.61;100263.88;5035506;28;20061;-62
2021/01/17 07:04:10;;;;;;;27.23;14.52;;;;;;;2.68;63.45;100255.13;5034822;28;20057;-62
2021/01/17 07:07:04;;;;;;;30.70;16.80;;;;;;;2.71;65.04;100252.69;5035166;28;20054;-61
2021/01/17 07:09:45;;;;;;;26.77;15.25;;;;;;;2.63;63.60;100258.69;5034906;28;20061;-62
2021/01/17 07:12:20;;;;;;;26.25;16.33;;;;;;;2.72;63.70;100250.75;5034732;28;20053;-61
2021/01/17 07:15:04;;;;;;;26.60;15.15;;;;;;;2.72;64.03;100245.25;5035301;28;20060;-61
2021/01/17 07:17:34;;;;;;;26.38;15.32;;;;;;;2.58;64.54;100244.88;5033131;28;20058;-61
2021/01/17 07:20:02;;;;;;;;;;;;;;;2.52;64.82;100243.19;5035486;28;20057;-61
2021/01/17 07:22:32;;;;;;;24.30;13.70;;;;;;;2.52;63.74;100234.94;5034647;28;19921;-60
2021/01/17 07:25:00;;;;;;;25.70;14.00;;;;;;;2.43;64.92;100243.69;5034085;28;20066;-61
2021/01/17 07:27:51;;;;;;;24.80;14.63;;;;;;;2.56;64.31;100258.94;5034887;28;20053;-60
2021/01/17 07:30:20;;;;;;;24.92;14.70;;;;;;;2.58;64.45;100250.38;5035107;28;20057;-61
2021/01/17 07:32:54;;;;;;;24.55;15.32;;;;;;;2.56;64.50;100255.31;5034456;28;20057;-61
2021/01/17 07:35:25;;;;;;;23.83;14.43;;;;;;;2.52;64.31;100260.56;5034884;28;20169;-62
2021/01/17 07:37:55;;;;;;;25.52;15.05;;;;;;;2.56;64.40;100269.06;5034779;28;20088;-62
2021/01/17 07:40:49;;;;;;;25.73;14.63;;;;;;;2.56;64.38;100269.91;5033865;28;20516;-61
2021/01/17 07:43:12;;;;;;;23.48;13.05;;;;;;;2.62;64.44;100273.50;5034308;28;20399;-61
2021/01/17 07:45:41;;;;;;;22.95;14.23;;;;;;;2.75;65.13;100277.69;5034178;28;20049;-61
2021/01/17 07:48:11;;;;;;;27.63;16.23;;;;;;;2.84;63.93;100284.38;5034202;28;20413;-61
2021/01/17 07:50:38;;;;;;;;;;;;;;;2.92;63.48;100286.59;5034690;28;20076;-61
2021/01/17 07:53:12;;;;;;;27.40;16.42;;;;;;;2.84;63.82;100287.94;5033528;28;19929;-61
2021/01/17 07:55:41;;;;;;;24.60;14.38;;;;;;;2.88;63.58;100292.88;5034036;28;20049;-62
2021/01/17 07:58:11;;;;;;;25.55;15.10;;;;;;;2.89;63.86;100289.06;5012427;28;20049;-62
2021/01/17 08:00:38;;;;;;;26.80;16.55;;;;;;;2.90;63.25;100296.19;5014458;28;20053;-62
2021/01/17 08:03:06;;;;;;;25.63;14.82;;;;;;;2.97;63.63;100307.81;5014077;28;20065;-62
2021/01/17 08:05:52;;;;;;;27.35;15.45;;;;;;;3.08;63.71;100305.91;5014433;28;20376;-61
2021/01/17 08:08:48;;;;;;;27.30;15.95;;;;;;;3.11;63.34;100314.47;5014182;28;20053;-61
2021/01/17 08:11:41;;;;;;;25.95;14.85;;;;;;;3.13;62.96;100309.53;5014298;28;20054;-61
2021/01/17 08:14:32;;;;;;;29.05;15.48;;;;;;;3.16;63.52;100317.25;5013341;28;20053;-61
2021/01/17 08:17:13;;;;;;;27.92;15.27;;;;;;;3.16;63.41;100316.41;4990307;28;20045;-62
2021/01/17 08:19:43;;;;;;;30.88;17.02;;;;;;;3.04;64.52;100322.13;5014078;28;20050;-62
2021/01/17 08:22:46;;;;;;;24.52;16.33;;;;;;;3.15;63.59;100314.75;5014169;28;20058;-62
2021/01/17 08:25:15;;;;;;;29.20;16.50;;;;;;;3.16;64.30;100322.75;5009720;28;20057;-62
2021/01/17 08:27:44;;;;;;;28.80;17.48;;;;;;;3.09;63.72;100327.69;5012459;28;20042;-62
2021/01/17 08:30:16;;;;;;;32.85;18.25;;;;;;;3.13;64.60;100331.56;5011213;28;20054;-61
2021/01/17 08:32:44;;;;;;;29.23;16.67;;;;;;;3.13;64.01;100337.06;5007942;28;20050;-63
2021/01/17 08:35:33;;;;;;;31.60;17.90;;;;;;;3.21;64.45;100336.53;5010777;28;20046;-64
2021/01/17 08:38:16;;;;;;;26.90;16.27;;;;;;;3.31;64.34;100332.97;5013739;28;20045;-64
2021/01/17 08:40:48;;;;;;;28.52;15.82;;;;;;;3.30;64.37;100333.25;5000936;28;20056;-64
2021/01/17 08:43:17;;;;;;;28.55;17.38;;;;;;;3.28;63.98;100335.47;5012215;28;20387;-64
2021/01/17 08:45:46;;;;;;;25.02;15.68;;;;;;;3.37;63.96;100334.66;5010729;28;20042;-64
2021/01/17 08:48:25;;;;;;;28.75;16.70;;;;;;;3.37;64.20;100340.16;5011963;28;20495;-64
2021/01/17 08:50:53;;;;;;;30.42;16.88;;;;;;;3.38;64.04;100340.97;5009509;28;20064;-64
2021/01/17 08:53:32;;;;;;;27.27;16.15;;;;;;;3.52;63.91;100339.38;5012774;28;20058;-64
2021/01/17 08:56:01;;;;;;;34.78;19.42;;;;;;;3.63;64.44;100343.84;5012605;28;20049;-64
2021/01/17 08:58:48;;;;;;;36.63;20.97;;;;;;;3.73;63.86;100344.94;5017482;28;20049;-64
2021/01/17 09:01:16;;;;;;;36.22;21.23;;;;;;;3.78;64.10;100337.53;5031268;28;20475;-64
2021/01/17 09:03:54;;;;;;;33.35;19.83;;;;;;;3.87;63.83;100351.59;5043449;28;20068;-64
2021/01/17 09:06:41;;;;;;;31.17;17.60;;;;;;;3.96;63.50;100360.97;5030941;28;20376;-64
2021/01/17 09:09:16;;;;;;;26.42;16.60;;;;;;;4.06;63.15;100355.47;5031662;28;20415;-64
2021/01/17 09:11:43;;;;;;;29.60;16.95;;;;;;;4.10;63.40;100357.69;5030539;28;20410;-64
2021/01/17 09:14:12;;;;;;;30.10;17.92;;;;;;;4.19;62.58;100367.06;5029067;28;20045;-64
2021/01/17 09:16:44;;;;;;;32.70;18.23;;;;;;;4.31;62.67;100364.06;5032600;28;20049;-64
2021/01/17 09:19:11;;;;;;;30.02;16.95;;;;;;;4.38;62.71;100368.16;5030116;28;20057;-64
2021/01/17 09:21:39;;;;;;;29.38;17.88;;;;;;;4.43;62.18;100373.72;5032186;28;20060;-64
2021/01/17 09:24:11;;;;;;;32.03;19.15;;;;;;;4.48;62.25;100387.47;5024627;28;20042;-64
2021/01/17 09:26:50;;;;;;;31.85;18.85;;;;;;;4.47;62.46;100377.56;5032262;28;20417;-64
2021/01/17 09:29:21;;;;;;;32.03;18.75;;;;;;;4.51;62.57;100386.09;5030234;28;20521;-64
2021/01/17 09:31:59;;;;;;;36.95;19.15;;;;;;;4.51;63.01;100396.31;5034222;28;20049;-64
2021/01/17 09:34:29;;;;;;;41.63;22.52;;;;;;;4.53;63.13;100394.09;5027930;28;20085;-64
2021/01/17 09:36:57;;;;;;;40.25;23.75;;;;;;;4.55;63.80;100395.47;5033089;28;20053;-64
2021/01/17 09:39:36;;;;;;;36.55;22.00;;;;;;;4.63;63.67;100394.91;5023317;28;20053;-64
2021/01/17 09:42:06;;;;;;;37.10;22.33;;;;;;;4.65;62.71;100398.22;5030077;28;20501;-64
2021/01/17 09:44:35;;;;;;;;;;;;;;;4.60;63.82;100397.41;5032485;28;20056;-64
2021/01/17 09:47:03;;;;;;;36.38;20.58;;;;;;;4.65;63.12;100405.69;5030427;28;19925;-64
2021/01/17 09:49:32;;;;;;;32.40;18.35;;;;;;;4.68;63.40;100397.69;5024024;28;20050;-64
2021/01/17 09:52:00;;;;;;;34.45;19.13;;;;;;;4.79;63.25;100398.50;5028824;28;20053;-64
2021/01/17 09:54:27;;;;;;;33.47;19.13;;;;;;;4.76;62.70;100403.75;5027759;28;20057;-64
2021/01/17 09:56:55;;;;;;;31.38;17.77;;;;;;;4.68;62.75;100403.22;5027466;28;20053;-64
2021/01/17 09:59:23;;;;;;;35.50;19.27;;;;;;;4.73;63.18;100418.94;5031732;28;20057;-64
2021/01/17 10:01:51;;;;;;;31.23;18.77;;;;;;;4.63;63.10;100421.69;5026669;28;20054;-64
2021/01/17 10:04:30;;;;;;;32.03;18.38;;;;;;;4.60;63.09;100419.47;5029120;28;20521;-64
2021/01/17 10:06:58;;;;;;;26.20;14.57;;;;;;;4.57;62.28;100423.59;5031711;28;20371;-64
2021/01/17 10:09:27;;;;;;;27.23;16.25;;;;;;;4.50;62.84;100422.25;5032700;28;20478;-64
2021/01/17 10:12:00;;;;;;;26.80;15.75;;;;;;;4.39;62.96;100421.38;5035247;28;20501;-64
2021/01/17 10:14:32;;;;;;;26.92;15.50;;;;;;;4.34;63.08;100426.91;5016425;28;20050;-65
2021/01/17 10:17:02;;;;;;;26.60;15.48;;;;;;;4.33;63.51;100436.31;5031223;28;20053;-64
2021/01/17 10:19:31;;;;;;;25.27;16.15;;;;;;;4.41;63.05;100435.72;5036071;28;20514;-65
2021/01/17 10:21:59;;;;;;;25.67;14.60;;;;;;;4.41;62.95;100447.63;5035132;28;20057;-64
2021/01/17 10:24:28;;;;;;;29.23;15.77;;;;;;;4.39;63.00;100438.78;5033898;28;20057;-64
2021/01/17 10:26:56;;;;;;;27.25;14.65;;;;;;;4.39;63.06;100438.78;5037814;28;20049;-64
2021/01/17 10:29:26;;;;;;;24.08;13.50;;;;;;;4.34;62.67;100441.53;5035736;28;20069;-64
2021/01/17 10:32:03;;;;;;;28.67;15.15;;;;;;;4.23;63.51;100448.94;5036095;28;20446;-64
2021/01/17 10:34:33;;;;;;;26.90;14.82;;;;;;;4.13;63.74;100439.84;5033042;28;20053;-64
2021/01/17 10:37:00;;;;;;;;;;;;;;;3.98;63.85;100446.13;5035534;28;20072;-64
2021/01/17 10:39:29;;;;;;;24.00;13.38;;;;;;;3.98;63.73;100446.13;5034477;28;19925;-64
2021/01/17 10:42:07;;;;;;;23.58;14.25;;;;;;;3.94;64.08;100440.31;5021792;28;20056;-64
2021/01/17 10:44:41;;;;;;;23.23;12.60;;;;;;;4.04;63.83;100437.59;5034946;28;20057;-64
2021/01/17 10:47:24;;;;;;;22.60;12.73;;;;;;;3.90;64.31;100432.88;5034735;28;20048;-64
2021/01/17 10:49:54;;;;;;;24.48;13.27;;;;;;;3.96;64.09;100426.28;5034149;28;20457;-64
2021/01/17 10:52:23;;;;;;;;;;;;;;;4.07;64.04;100430.72;5034921;28;20521;-64
2021/01/17 10:54:53;;;;;;;22.45;12.30;;;;;;;4.22;63.33;100428.00;5033046;28;19921;-64
2021/01/17 10:57:22;;;;;;;24.85;13.02;;;;;;;4.39;62.88;100425.00;5030407;28;20050;-64
2021/01/17 10:59:55;;;;;;;23.10;14.05;;;;;;;4.53;62.23;100421.69;5035514;28;20395;-63
2021/01/17 11:02:24;;;;;;;24.35;14.60;;;;;;;4.80;62.12;100422.22;5017764;28;20058;-63
2021/01/17 11:04:51;;;;;;;26.30;15.23;;;;;;;4.85;61.21;100425.00;5031403;28;20049;-63
2021/01/17 11:07:25;;;;;;;21.65;13.77;;;;;;;5.04;60.32;100418.88;5036030;28;20057;-64
2021/01/17 11:09:52;;;;;;;25.25;14.68;;;;;;;5.20;60.16;100414.97;5038417;28;20057;-63
2021/01/17 11:12:36;;;;;;;26.13;14.70;;;;;;;5.28;60.57;100414.41;5035249;28;20045;-63
2021/01/17 11:15:14;;;;;;;21.60;12.27;;;;;;;5.39;59.38;100417.97;5036712;28;20061;-64
2021/01/17 11:17:43;;;;;;;24.45;14.45;;;;;;;5.44;59.43;100425.44;5033347;28;20045;-63
2021/01/17 11:20:12;;;;;;;21.00;12.75;;;;;;;5.48;59.36;100423.72;5031679;28;20049;-64
2021/01/17 11:22:41;;;;;;;20.08;12.63;;;;;;;5.42;59.45;100438.69;5033437;28;20072;-64
2021/01/17 11:25:18;;;;;;;20.87;13.73;;;;;;;5.40;59.56;100436.19;5032684;28;20061;-64
2021/01/17 11:27:46;;;;;;;21.58;14.07;;;;;;;5.45;59.48;100438.13;5034076;28;20503;-64
2021/01/17 11:30:15;;;;;;;22.13;13.45;;;;;;;5.41;59.79;100437.03;5035111;28;20052;-64
2021/01/17 11:32:43;;;;;;;26.42;14.90;;;;;;;5.38;60.09;100443.94;5034764;28;20056;-63
2021/01/17 11:35:24;;;;;;;24.70;14.57;;;;;;;5.34;59.95;100437.31;5034485;28;20065;-63